sensor_id;sensor_type;location;lat;lon;timestamp;temperature;humidity
33811;DHT22;20119;48.334;16.206;2022-11-15T00:00:33;7.60;99.90
33811;DHT22;20119;48.334;16.206;2022-11-15T00:03:07;7.60;99.90
33811;DHT22;20119;48.334;16.206;2022-11-15T00:05:47;7.70;99.90
33811;DHT22;20119;48.334;16.206;2022-11-15T00:08:17;7.60;99.90
33811;DHT22;20119;48.334;16.206;2022-11-15T00:10:53;7.60;99.90
33811;DHT22;20119;48.334;16.206;2022-11-15T00:13:23;7.60;99.90
33811;DHT22;20119;48.334;16.206;2022-11-15T00:15:55;7.60;99.90
33811;DHT22;20119;48.334;16.206;2022-11-15T00:18:25;7.60;99.90
33811;DHT22;20119;48.334;16.206;2022-11-15T00:21:02;7.50;99.90
33811;DHT22;20119;48.334;16.206;2022-11-15T00:23:31;7.40;99.90
33811;DHT22;20119;48.334;16.206;2022-11-15T00:26:11;7.40;99.90
33811;DHT22;20119;48.334;16.206;2022-11-15T00:28:43;7.30;99.90
33811;DHT22;20119;48.334;16.206;2022-11-15T00:31:16;7.20;99.90
33811;DHT22;20119;48.334;16.206;2022-11-15T00:33:46;7.20;99.90
33811;DHT22;20119;48.334;16.206;2022-11-15T00:36:20;7.20;99.90
33811;DHT22;20119;48.334;16.206;2022-11-15T00:38:59;7.20;99.90
33811;DHT22;20119;48.334;16.206;2022-11-15T00:41:27;7.10;99.90
33811;DHT22;20119;48.334;16.206;2022-11-15T00:44:01;7.10;99.90
33811;DHT22;20119;48.334;16.206;2022-11-15T00:46:34;7.10;99.90
33811;DHT22;20119;48.334;16.206;2022-11-15T00:49:10;7.10;99.90
33811;DHT22;20119;48.334;16.206;2022-11-15T00:51:44;7.10;99.90
33811;DHT22;20119;48.334;16.206;2022-11-15T00:54:12;7.10;99.90
33811;DHT22;20119;48.334;16.206;2022-11-15T00:56:55;7.30;99.90
33811;DHT22;20119;48.334;16.206;2022-11-15T00:59:33;7.30;99.90
33811;DHT22;20119;48.334;16.206;2022-11-15T01:02:20;7.30;99.90
33811;DHT22;20119;48.334;16.206;2022-11-15T01:04:51;7.30;99.90
33811;DHT22;20119;48.334;16.206;2022-11-15T01:07:24;7.30;99.90
33811;DHT22;20119;48.334;16.206;2022-11-15T01:09:55;7.20;99.90
33811;DHT22;20119;48.334;16.206;2022-11-15T01:12:25;7.30;99.90
33811;DHT22;20119;48.334;16.206;2022-11-15T01:15:01;7.20;99.90
33811;DHT22;20119;48.334;16.206;2022-11-15T01:17:33;7.30;99.90
33811;DHT22;20119;48.334;16.206;2022-11-15T01:20:02;7.30;99.90
33811;DHT22;20119;48.334;16.206;2022-11-15T01:22:43;7.30;99.90
33811;DHT22;20119;48.334;16.206;2022-11-15T01:25:21;7.30;99.90
33811;DHT22;20119;48.334;16.206;2022-11-15T01:27:54;7.30;99.90
33811;DHT22;20119;48.334;16.206;2022-11-15T01:30:21;7.40;99.90
33811;DHT22;20119;48.334;16.206;2022-11-15T01:32:49;7.40;99.90
33811;DHT22;20119;48.334;16.206;2022-11-15T01:35:19;7.30;99.90
33811;DHT22;20119;48.334;16.206;2022-11-15T01:37:59;7.30;99.90
33811;DHT22;20119;48.334;16.206;2022-11-15T01:40:31;7.30;99.90
33811;DHT22;20119;48.334;16.206;2022-11-15T01:45:56;7.40;99.90
33811;DHT22;20119;48.334;16.206;2022-11-15T01:48:28;7.40;99.90
33811;DHT22;20119;48.334;16.206;2022-11-15T01:51:13;7.40;99.90
33811;DHT22;20119;48.334;16.206;2022-11-15T01:53:49;7.40;99.90
33811;DHT22;20119;48.334;16.206;2022-11-15T01:56:22;7.40;99.90
33811;DHT22;20119;48.334;16.206;2022-11-15T01:58:56;7.30;99.90
33811;DHT22;20119;48.334;16.206;2022-11-15T02:01:26;7.40;99.90
33811;DHT22;20119;48.334;16.206;2022-11-15T02:03:57;7.30;99.90
33811;DHT22;20119;48.334;16.206;2022-11-15T02:06:26;7.30;99.90
33811;DHT22;20119;48.334;16.206;2022-11-15T02:09:02;7.40;99.90
33811;DHT22;20119;48.334;16.206;2022-11-15T02:11:30;7.30;99.90
33811;DHT22;20119;48.334;16.206;2022-11-15T02:14:03;7.40;99.90
33811;DHT22;20119;48.334;16.206;2022-11-15T02:16:38;7.30;99.90
33811;DHT22;20119;48.334;16.206;2022-11-15T02:19:14;7.30;99.90
33811;DHT22;20119;48.334;16.206;2022-11-15T02:21:55;7.30;99.90
33811;DHT22;20119;48.334;16.206;2022-11-15T02:30:25;7.30;99.90
33811;DHT22;20119;48.334;16.206;2022-11-15T02:32:57;7.40;99.90
33811;DHT22;20119;48.334;16.206;2022-11-15T02:35:41;7.40;99.90
33811;DHT22;20119;48.334;16.206;2022-11-15T02:38:16;7.40;99.90
33811;DHT22;20119;48.334;16.206;2022-11-15T02:40:52;7.30;99.90
33811;DHT22;20119;48.334;16.206;2022-11-15T02:43:22;7.30;99.90
33811;DHT22;20119;48.334;16.206;2022-11-15T02:49:12;7.40;99.90
33811;DHT22;20119;48.334;16.206;2022-11-15T02:51:44;7.30;99.90
33811;DHT22;20119;48.334;16.206;2022-11-15T02:54:17;7.30;99.90
33811;DHT22;20119;48.334;16.206;2022-11-15T02:56:49;7.30;99.90
33811;DHT22;20119;48.334;16.206;2022-11-15T02:59:43;7.30;99.90
33811;DHT22;20119;48.334;16.206;2022-11-15T03:02:18;7.40;99.90
33811;DHT22;20119;48.334;16.206;2022-11-15T03:04:53;7.30;99.90
33811;DHT22;20119;48.334;16.206;2022-11-15T03:07:22;7.30;99.90
33811;DHT22;20119;48.334;16.206;2022-11-15T03:09:52;7.30;99.90
33811;DHT22;20119;48.334;16.206;2022-11-15T03:12:23;7.20;99.90
33811;DHT22;20119;48.334;16.206;2022-11-15T03:14:55;7.30;99.90
33811;DHT22;20119;48.334;16.206;2022-11-15T03:17:27;7.30;99.90
33811;DHT22;20119;48.334;16.206;2022-11-15T03:22:53;7.40;99.90
33811;DHT22;20119;48.334;16.206;2022-11-15T03:25:45;7.30;99.90
33811;DHT22;20119;48.334;16.206;2022-11-15T03:28:31;7.50;99.90
33811;DHT22;20119;48.334;16.206;2022-11-15T03:31:05;7.40;99.90
33811;DHT22;20119;48.334;16.206;2022-11-15T03:33:54;7.30;99.90
33811;DHT22;20119;48.334;16.206;2022-11-15T03:36:26;7.30;99.90
33811;DHT22;20119;48.334;16.206;2022-11-15T03:39:02;7.40;99.90
33811;DHT22;20119;48.334;16.206;2022-11-15T03:41:37;7.20;99.90
33811;DHT22;20119;48.334;16.206;2022-11-15T03:44:20;7.40;99.90
33811;DHT22;20119;48.334;16.206;2022-11-15T03:46:57;7.30;99.90
33811;DHT22;20119;48.334;16.206;2022-11-15T03:49:52;7.20;99.90
33811;DHT22;20119;48.334;16.206;2022-11-15T03:52:37;7.20;99.90
33811;DHT22;20119;48.334;16.206;2022-11-15T03:55:11;7.30;99.90
33811;DHT22;20119;48.334;16.206;2022-11-15T03:57:45;7.20;99.90
33811;DHT22;20119;48.334;16.206;2022-11-15T04:00:21;7.30;99.90
33811;DHT22;20119;48.334;16.206;2022-11-15T04:02:57;7.20;99.90
33811;DHT22;20119;48.334;16.206;2022-11-15T04:05:30;7.20;99.90
33811;DHT22;20119;48.334;16.206;2022-11-15T04:08:05;7.20;99.90
33811;DHT22;20119;48.334;16.206;2022-11-15T04:10:34;7.20;99.90
33811;DHT22;20119;48.334;16.206;2022-11-15T04:13:02;7.20;99.90
33811;DHT22;20119;48.334;16.206;2022-11-15T04:15:36;7.30;99.90
33811;DHT22;20119;48.334;16.206;2022-11-15T04:18:11;7.20;99.90
33811;DHT22;20119;48.334;16.206;2022-11-15T04:20:41;7.20;99.90
33811;DHT22;20119;48.334;16.206;2022-11-15T04:23:29;7.30;99.90
33811;DHT22;20119;48.334;16.206;2022-11-15T04:26:23;7.30;99.90
33811;DHT22;20119;48.334;16.206;2022-11-15T04:28:51;7.20;99.90
33811;DHT22;20119;48.334;16.206;2022-11-15T04:31:38;7.30;99.90
33811;DHT22;20119;48.334;16.206;2022-11-15T04:34:13;7.20;99.90
33811;DHT22;20119;48.334;16.206;2022-11-15T04:36:48;7.10;99.90
33811;DHT22;20119;48.334;16.206;2022-11-15T04:39:32;7.10;99.90
33811;DHT22;20119;48.334;16.206;2022-11-15T04:42:16;7.10;99.90
33811;DHT22;20119;48.334;16.206;2022-11-15T04:44:49;7.10;99.90
33811;DHT22;20119;48.334;16.206;2022-11-15T04:47:37;7.10;99.90
33811;DHT22;20119;48.334;16.206;2022-11-15T04:50:08;7.20;99.90
33811;DHT22;20119;48.334;16.206;2022-11-15T04:52:50;7.30;99.90
33811;DHT22;20119;48.334;16.206;2022-11-15T04:55:34;7.30;99.90
33811;DHT22;20119;48.334;16.206;2022-11-15T04:58:15;7.30;99.90
33811;DHT22;20119;48.334;16.206;2022-11-15T05:00:45;7.20;99.90
33811;DHT22;20119;48.334;16.206;2022-11-15T05:03:22;7.30;99.90
33811;DHT22;20119;48.334;16.206;2022-11-15T05:06:09;7.30;99.90
33811;DHT22;20119;48.334;16.206;2022-11-15T05:08:45;7.30;99.90
33811;DHT22;20119;48.334;16.206;2022-11-15T05:11:14;7.30;99.90
33811;DHT22;20119;48.334;16.206;2022-11-15T05:13:55;7.40;99.90
33811;DHT22;20119;48.334;16.206;2022-11-15T05:16:31;7.30;99.90
33811;DHT22;20119;48.334;16.206;2022-11-15T05:19:07;7.30;99.90
33811;DHT22;20119;48.334;16.206;2022-11-15T05:21:50;7.30;99.90
33811;DHT22;20119;48.334;16.206;2022-11-15T05:24:22;7.30;99.90
33811;DHT22;20119;48.334;16.206;2022-11-15T05:27:01;7.30;99.90
33811;DHT22;20119;48.334;16.206;2022-11-15T05:32:37;7.30;99.90
33811;DHT22;20119;48.334;16.206;2022-11-15T05:35:04;7.40;99.90
33811;DHT22;20119;48.334;16.206;2022-11-15T05:37:34;7.40;99.90
33811;DHT22;20119;48.334;16.206;2022-11-15T05:40:05;7.40;99.90
33811;DHT22;20119;48.334;16.206;2022-11-15T05:42:44;7.50;99.90
33811;DHT22;20119;48.334;16.206;2022-11-15T05:45:19;7.40;99.90
33811;DHT22;20119;48.334;16.206;2022-11-15T05:47:54;7.30;99.90
33811;DHT22;20119;48.334;16.206;2022-11-15T05:50:23;7.20;99.90
33811;DHT22;20119;48.334;16.206;2022-11-15T05:52:52;7.20;99.90
33811;DHT22;20119;48.334;16.206;2022-11-15T05:55:19;7.20;99.90
33811;DHT22;20119;48.334;16.206;2022-11-15T05:57:50;7.20;99.90
33811;DHT22;20119;48.334;16.206;2022-11-15T06:00:20;7.20;99.90
33811;DHT22;20119;48.334;16.206;2022-11-15T06:02:52;7.10;99.90
33811;DHT22;20119;48.334;16.206;2022-11-15T06:05:30;7.20;99.90
33811;DHT22;20119;48.334;16.206;2022-11-15T06:08:05;7.20;99.90
33811;DHT22;20119;48.334;16.206;2022-11-15T06:10:33;7.20;99.90
33811;DHT22;20119;48.334;16.206;2022-11-15T06:13:01;7.20;99.90
33811;DHT22;20119;48.334;16.206;2022-11-15T06:15:29;7.10;99.90
33811;DHT22;20119;48.334;16.206;2022-11-15T06:18:04;7.20;99.90
33811;DHT22;20119;48.334;16.206;2022-11-15T06:20:33;7.20;99.90
33811;DHT22;20119;48.334;16.206;2022-11-15T06:23:00;7.20;99.90
33811;DHT22;20119;48.334;16.206;2022-11-15T06:25:30;7.20;99.90
33811;DHT22;20119;48.334;16.206;2022-11-15T06:27:58;7.20;99.90
33811;DHT22;20119;48.334;16.206;2022-11-15T06:30:36;7.30;99.90
33811;DHT22;20119;48.334;16.206;2022-11-15T06:33:18;7.30;99.90
33811;DHT22;20119;48.334;16.206;2022-11-15T06:35:59;7.10;99.90
33811;DHT22;20119;48.334;16.206;2022-11-15T06:38:32;7.10;99.90
33811;DHT22;20119;48.334;16.206;2022-11-15T06:41:07;7.10;99.90
33811;DHT22;20119;48.334;16.206;2022-11-15T06:43:53;7.10;99.90
33811;DHT22;20119;48.334;16.206;2022-11-15T06:46:22;7.10;99.90
33811;DHT22;20119;48.334;16.206;2022-11-15T06:48:54;7.00;99.90
33811;DHT22;20119;48.334;16.206;2022-11-15T06:54:43;6.90;99.90
33811;DHT22;20119;48.334;16.206;2022-11-15T06:57:17;6.80;99.90
33811;DHT22;20119;48.334;16.206;2022-11-15T07:00:00;6.90;99.90
33811;DHT22;20119;48.334;16.206;2022-11-15T07:02:30;6.90;99.90
33811;DHT22;20119;48.334;16.206;2022-11-15T07:05:17;6.90;99.90
33811;DHT22;20119;48.334;16.206;2022-11-15T07:07:52;7.00;99.90
33811;DHT22;20119;48.334;16.206;2022-11-15T07:10:27;7.10;99.90
33811;DHT22;20119;48.334;16.206;2022-11-15T07:12:56;7.00;99.90
33811;DHT22;20119;48.334;16.206;2022-11-15T07:15:29;7.00;99.90
33811;DHT22;20119;48.334;16.206;2022-11-15T07:18:03;7.00;99.90
33811;DHT22;20119;48.334;16.206;2022-11-15T07:20:30;7.00;99.90
33811;DHT22;20119;48.334;16.206;2022-11-15T07:23:02;7.00;99.90
33811;DHT22;20119;48.334;16.206;2022-11-15T07:25:38;6.90;99.90
33811;DHT22;20119;48.334;16.206;2022-11-15T07:28:07;6.90;99.90
33811;DHT22;20119;48.334;16.206;2022-11-15T07:30:36;6.90;99.90
33811;DHT22;20119;48.334;16.206;2022-11-15T07:33:04;6.90;99.90
33811;DHT22;20119;48.334;16.206;2022-11-15T07:35:35;7.00;99.90
33811;DHT22;20119;48.334;16.206;2022-11-15T07:38:06;7.10;99.90
33811;DHT22;20119;48.334;16.206;2022-11-15T07:40:42;7.10;99.90
33811;DHT22;20119;48.334;16.206;2022-11-15T07:43:10;7.00;99.90
33811;DHT22;20119;48.334;16.206;2022-11-15T07:45:40;7.10;99.90
33811;DHT22;20119;48.334;16.206;2022-11-15T07:48:19;7.00;99.90
33811;DHT22;20119;48.334;16.206;2022-11-15T07:50:56;7.10;99.90
33811;DHT22;20119;48.334;16.206;2022-11-15T07:53:34;7.10;99.90
33811;DHT22;20119;48.334;16.206;2022-11-15T07:56:16;7.20;99.90
33811;DHT22;20119;48.334;16.206;2022-11-15T07:58:51;7.10;99.90
33811;DHT22;20119;48.334;16.206;2022-11-15T08:01:26;7.00;99.90
33811;DHT22;20119;48.334;16.206;2022-11-15T08:04:14;7.10;99.90
33811;DHT22;20119;48.334;16.206;2022-11-15T08:06:45;7.20;99.90
33811;DHT22;20119;48.334;16.206;2022-11-15T08:09:29;7.20;99.90
33811;DHT22;20119;48.334;16.206;2022-11-15T08:12:19;7.10;99.90
33811;DHT22;20119;48.334;16.206;2022-11-15T08:14:47;7.10;99.90
33811;DHT22;20119;48.334;16.206;2022-11-15T08:17:21;7.10;99.90
33811;DHT22;20119;48.334;16.206;2022-11-15T08:20:15;7.10;99.90
33811;DHT22;20119;48.334;16.206;2022-11-15T08:22:48;7.10;99.90
33811;DHT22;20119;48.334;16.206;2022-11-15T08:25:30;7.20;99.90
33811;DHT22;20119;48.334;16.206;2022-11-15T08:28:05;7.20;99.90
33811;DHT22;20119;48.334;16.206;2022-11-15T08:30:35;7.20;99.90
33811;DHT22;20119;48.334;16.206;2022-11-15T08:33:03;7.20;99.90
33811;DHT22;20119;48.334;16.206;2022-11-15T08:35:45;7.30;99.90
33811;DHT22;20119;48.334;16.206;2022-11-15T08:38:21;7.30;99.90
33811;DHT22;20119;48.334;16.206;2022-11-15T08:40:49;7.40;99.90
33811;DHT22;20119;48.334;16.206;2022-11-15T08:43:23;7.50;99.90
33811;DHT22;20119;48.334;16.206;2022-11-15T08:45:51;7.40;99.90
33811;DHT22;20119;48.334;16.206;2022-11-15T08:48:19;7.50;99.90
33811;DHT22;20119;48.334;16.206;2022-11-15T08:50:51;7.50;99.90
33811;DHT22;20119;48.334;16.206;2022-11-15T08:53:27;7.60;99.90
33811;DHT22;20119;48.334;16.206;2022-11-15T08:55:56;7.60;99.90
33811;DHT22;20119;48.334;16.206;2022-11-15T08:58:27;7.40;99.90
33811;DHT22;20119;48.334;16.206;2022-11-15T09:00:59;7.50;99.90
33811;DHT22;20119;48.334;16.206;2022-11-15T09:03:28;7.50;99.90
33811;DHT22;20119;48.334;16.206;2022-11-15T09:05:57;7.60;99.90
33811;DHT22;20119;48.334;16.206;2022-11-15T09:08:29;7.70;99.90
33811;DHT22;20119;48.334;16.206;2022-11-15T09:11:12;7.70;99.90
33811;DHT22;20119;48.334;16.206;2022-11-15T09:14:10;7.70;99.90
33811;DHT22;20119;48.334;16.206;2022-11-15T09:16:38;7.70;99.90
33811;DHT22;20119;48.334;16.206;2022-11-15T09:19:13;7.80;99.90
33811;DHT22;20119;48.334;16.206;2022-11-15T09:21:50;7.80;99.90
33811;DHT22;20119;48.334;16.206;2022-11-15T09:24:17;7.70;99.90
33811;DHT22;20119;48.334;16.206;2022-11-15T09:26:50;7.80;99.90
33811;DHT22;20119;48.334;16.206;2022-11-15T09:29:35;7.90;99.90
33811;DHT22;20119;48.334;16.206;2022-11-15T09:32:10;7.90;99.90
33811;DHT22;20119;48.334;16.206;2022-11-15T09:34:38;8.00;99.90
33811;DHT22;20119;48.334;16.206;2022-11-15T09:37:14;8.00;99.90
33811;DHT22;20119;48.334;16.206;2022-11-15T09:40:06;8.10;99.90
33811;DHT22;20119;48.334;16.206;2022-11-15T09:42:45;8.20;99.90
33811;DHT22;20119;48.334;16.206;2022-11-15T09:45:28;8.10;99.90
33811;DHT22;20119;48.334;16.206;2022-11-15T09:48:11;8.10;99.90
33811;DHT22;20119;48.334;16.206;2022-11-15T09:50:50;8.10;99.90
33811;DHT22;20119;48.334;16.206;2022-11-15T09:53:22;8.10;99.90
33811;DHT22;20119;48.334;16.206;2022-11-15T09:56:05;8.20;99.90
33811;DHT22;20119;48.334;16.206;2022-11-15T09:58:52;8.20;99.90
33811;DHT22;20119;48.334;16.206;2022-11-15T10:04:34;8.10;99.90
33811;DHT22;20119;48.334;16.206;2022-11-15T10:07:13;8.00;99.90
33811;DHT22;20119;48.334;16.206;2022-11-15T10:10:55;8.10;99.90
33811;DHT22;20119;48.334;16.206;2022-11-15T10:13:52;8.10;99.90
33811;DHT22;20119;48.334;16.206;2022-11-15T10:19:16;8.10;99.90
33811;DHT22;20119;48.334;16.206;2022-11-15T10:21:59;8.10;99.90
33811;DHT22;20119;48.334;16.206;2022-11-15T10:24:28;8.10;99.90
33811;DHT22;20119;48.334;16.206;2022-11-15T10:29:56;8.20;99.90
33811;DHT22;20119;48.334;16.206;2022-11-15T10:32:25;8.30;99.90
33811;DHT22;20119;48.334;16.206;2022-11-15T10:35:15;8.30;99.90
33811;DHT22;20119;48.334;16.206;2022-11-15T10:37:51;8.40;99.90
33811;DHT22;20119;48.334;16.206;2022-11-15T10:40:26;8.40;99.90
33811;DHT22;20119;48.334;16.206;2022-11-15T10:43:12;8.40;99.90
33811;DHT22;20119;48.334;16.206;2022-11-15T10:45:59;8.40;99.90
33811;DHT22;20119;48.334;16.206;2022-11-15T10:49:11;8.50;99.90
33811;DHT22;20119;48.334;16.206;2022-11-15T10:51:51;8.50;99.90
33811;DHT22;20119;48.334;16.206;2022-11-15T10:54:23;8.50;99.90
33811;DHT22;20119;48.334;16.206;2022-11-15T10:57:00;8.50;99.90
33811;DHT22;20119;48.334;16.206;2022-11-15T10:59:42;8.50;99.90
33811;DHT22;20119;48.334;16.206;2022-11-15T11:08:23;8.60;99.90
33811;DHT22;20119;48.334;16.206;2022-11-15T11:10:54;8.80;99.90
33811;DHT22;20119;48.334;16.206;2022-11-15T11:13:36;8.80;99.90
33811;DHT22;20119;48.334;16.206;2022-11-15T11:16:15;8.70;99.90
33811;DHT22;20119;48.334;16.206;2022-11-15T11:18:54;8.70;99.90
33811;DHT22;20119;48.334;16.206;2022-11-15T11:21:37;8.70;99.90
33811;DHT22;20119;48.334;16.206;2022-11-15T11:24:32;8.80;99.90
33811;DHT22;20119;48.334;16.206;2022-11-15T11:27:13;8.70;99.90
33811;DHT22;20119;48.334;16.206;2022-11-15T11:29:49;8.80;99.90
33811;DHT22;20119;48.334;16.206;2022-11-15T11:32:32;8.60;99.90
33811;DHT22;20119;48.334;16.206;2022-11-15T11:35:06;8.40;99.90
33811;DHT22;20119;48.334;16.206;2022-11-15T11:37:38;8.40;99.90
33811;DHT22;20119;48.334;16.206;2022-11-15T11:40:19;8.50;99.90
33811;DHT22;20119;48.334;16.206;2022-11-15T11:42:54;8.50;99.90
33811;DHT22;20119;48.334;16.206;2022-11-15T11:45:46;8.50;99.90
33811;DHT22;20119;48.334;16.206;2022-11-15T11:48:25;8.60;99.90
33811;DHT22;20119;48.334;16.206;2022-11-15T11:51:08;8.70;99.90
33811;DHT22;20119;48.334;16.206;2022-11-15T11:53:39;8.60;99.90
33811;DHT22;20119;48.334;16.206;2022-11-15T11:56:18;8.60;99.90
33811;DHT22;20119;48.334;16.206;2022-11-15T11:58:52;8.70;99.90
33811;DHT22;20119;48.334;16.206;2022-11-15T12:01:22;8.80;99.90
33811;DHT22;20119;48.334;16.206;2022-11-15T12:03:55;8.80;99.90
33811;DHT22;20119;48.334;16.206;2022-11-15T12:06:29;8.90;99.90
33811;DHT22;20119;48.334;16.206;2022-11-15T12:09:11;8.80;99.90
33811;DHT22;20119;48.334;16.206;2022-11-15T12:11:55;8.80;99.90
33811;DHT22;20119;48.334;16.206;2022-11-15T12:14:31;8.80;99.90
33811;DHT22;20119;48.334;16.206;2022-11-15T12:17:00;8.70;99.90
33811;DHT22;20119;48.334;16.206;2022-11-15T12:19:39;8.70;99.90
33811;DHT22;20119;48.334;16.206;2022-11-15T12:22:13;8.70;99.90
33811;DHT22;20119;48.334;16.206;2022-11-15T12:24:50;8.70;99.90
33811;DHT22;20119;48.334;16.206;2022-11-15T12:27:38;8.70;99.90
33811;DHT22;20119;48.334;16.206;2022-11-15T12:30:11;8.70;99.90
33811;DHT22;20119;48.334;16.206;2022-11-15T12:32:41;8.60;99.90
33811;DHT22;20119;48.334;16.206;2022-11-15T12:35:26;8.80;99.90
33811;DHT22;20119;48.334;16.206;2022-11-15T12:37:56;8.80;99.90
33811;DHT22;20119;48.334;16.206;2022-11-15T12:40:25;8.80;99.90
33811;DHT22;20119;48.334;16.206;2022-11-15T12:43:10;8.80;99.90
33811;DHT22;20119;48.334;16.206;2022-11-15T12:45:56;8.70;99.90
33811;DHT22;20119;48.334;16.206;2022-11-15T12:57:27;8.80;99.90
33811;DHT22;20119;48.334;16.206;2022-11-15T13:00:36;8.80;99.90
33811;DHT22;20119;48.334;16.206;2022-11-15T13:03:12;8.70;99.90
33811;DHT22;20119;48.334;16.206;2022-11-15T13:08:40;8.50;99.90
33811;DHT22;20119;48.334;16.206;2022-11-15T13:11:50;8.30;99.90
33811;DHT22;20119;48.334;16.206;2022-11-15T13:14:37;8.20;99.90
33811;DHT22;20119;48.334;16.206;2022-11-15T13:17:27;8.30;99.90
33811;DHT22;20119;48.334;16.206;2022-11-15T13:20:18;8.30;99.90
33811;DHT22;20119;48.334;16.206;2022-11-15T13:22:58;8.30;99.90
33811;DHT22;20119;48.334;16.206;2022-11-15T13:25:52;8.50;99.90
33811;DHT22;20119;48.334;16.206;2022-11-15T13:28:31;8.50;99.90
33811;DHT22;20119;48.334;16.206;2022-11-15T13:31:13;8.50;99.90
33811;DHT22;20119;48.334;16.206;2022-11-15T13:34:13;8.30;99.90
33811;DHT22;20119;48.334;16.206;2022-11-15T13:36:50;8.20;99.90
33811;DHT22;20119;48.334;16.206;2022-11-15T13:39:28;8.20;99.90
33811;DHT22;20119;48.334;16.206;2022-11-15T13:42:01;8.10;99.90
33811;DHT22;20119;48.334;16.206;2022-11-15T13:44:54;8.10;99.90
33811;DHT22;20119;48.334;16.206;2022-11-15T13:47:24;8.10;99.90
33811;DHT22;20119;48.334;16.206;2022-11-15T13:52:50;8.20;99.90
33811;DHT22;20119;48.334;16.206;2022-11-15T13:55:22;8.10;99.90
33811;DHT22;20119;48.334;16.206;2022-11-15T13:57:53;8.10;99.90
33811;DHT22;20119;48.334;16.206;2022-11-15T14:00:25;8.10;99.90
33811;DHT22;20119;48.334;16.206;2022-11-15T14:03:05;8.00;99.90
33811;DHT22;20119;48.334;16.206;2022-11-15T14:05:34;8.00;99.90
33811;DHT22;20119;48.334;16.206;2022-11-15T14:08:21;8.00;99.90
33811;DHT22;20119;48.334;16.206;2022-11-15T14:11:05;8.00;99.90
33811;DHT22;20119;48.334;16.206;2022-11-15T14:14:01;8.10;99.90
33811;DHT22;20119;48.334;16.206;2022-11-15T14:16:33;8.00;99.90
33811;DHT22;20119;48.334;16.206;2022-11-15T14:22:08;8.20;99.90
33811;DHT22;20119;48.334;16.206;2022-11-15T14:24:46;8.10;99.90
33811;DHT22;20119;48.334;16.206;2022-11-15T14:27:18;8.10;99.90
33811;DHT22;20119;48.334;16.206;2022-11-15T14:29:47;8.20;99.90
33811;DHT22;20119;48.334;16.206;2022-11-15T14:32:27;8.10;99.90
33811;DHT22;20119;48.334;16.206;2022-11-15T14:34:59;8.20;99.90
33811;DHT22;20119;48.334;16.206;2022-11-15T14:37:38;8.20;99.90
33811;DHT22;20119;48.334;16.206;2022-11-15T14:40:22;8.20;99.90
33811;DHT22;20119;48.334;16.206;2022-11-15T14:42:49;8.30;99.90
33811;DHT22;20119;48.334;16.206;2022-11-15T14:45:21;8.30;99.90
33811;DHT22;20119;48.334;16.206;2022-11-15T14:47:51;8.50;99.90
33811;DHT22;20119;48.334;16.206;2022-11-15T14:50:21;8.50;99.90
33811;DHT22;20119;48.334;16.206;2022-11-15T14:53:03;8.40;99.90
33811;DHT22;20119;48.334;16.206;2022-11-15T14:55:49;8.40;99.90
33811;DHT22;20119;48.334;16.206;2022-11-15T14:58:19;8.40;99.90
33811;DHT22;20119;48.334;16.206;2022-11-15T15:00:49;8.50;99.90
33811;DHT22;20119;48.334;16.206;2022-11-15T15:03:24;8.50;99.90
33811;DHT22;20119;48.334;16.206;2022-11-15T15:05:56;8.50;99.90
33811;DHT22;20119;48.334;16.206;2022-11-15T15:08:29;8.60;99.90
33811;DHT22;20119;48.334;16.206;2022-11-15T15:13:57;8.60;99.90
33811;DHT22;20119;48.334;16.206;2022-11-15T15:16:33;8.80;99.90
33811;DHT22;20119;48.334;16.206;2022-11-15T15:19:12;8.70;99.90
33811;DHT22;20119;48.334;16.206;2022-11-15T15:21:54;8.60;99.90
33811;DHT22;20119;48.334;16.206;2022-11-15T15:24:21;8.60;99.90
33811;DHT22;20119;48.334;16.206;2022-11-15T15:26:49;8.70;99.90
33811;DHT22;20119;48.334;16.206;2022-11-15T15:29:37;8.60;99.90
33811;DHT22;20119;48.334;16.206;2022-11-15T15:32:08;8.60;99.90
33811;DHT22;20119;48.334;16.206;2022-11-15T15:34:52;8.60;99.90
33811;DHT22;20119;48.334;16.206;2022-11-15T15:37:25;8.60;99.90
33811;DHT22;20119;48.334;16.206;2022-11-15T15:39:56;8.60;99.90
33811;DHT22;20119;48.334;16.206;2022-11-15T15:42:24;8.50;99.90
33811;DHT22;20119;48.334;16.206;2022-11-15T15:45:08;8.50;99.90
33811;DHT22;20119;48.334;16.206;2022-11-15T15:47:39;8.50;99.90
33811;DHT22;20119;48.334;16.206;2022-11-15T15:50:12;8.50;99.90
33811;DHT22;20119;48.334;16.206;2022-11-15T15:53:00;8.50;99.90
33811;DHT22;20119;48.334;16.206;2022-11-15T15:55:37;8.50;99.90
33811;DHT22;20119;48.334;16.206;2022-11-15T15:58:24;8.60;99.90
33811;DHT22;20119;48.334;16.206;2022-11-15T16:01:01;8.60;99.90
33811;DHT22;20119;48.334;16.206;2022-11-15T16:03:31;8.50;99.90
33811;DHT22;20119;48.334;16.206;2022-11-15T16:09:13;8.60;99.90
33811;DHT22;20119;48.334;16.206;2022-11-15T16:12:15;8.50;99.90
33811;DHT22;20119;48.334;16.206;2022-11-15T16:15:04;8.60;99.90
33811;DHT22;20119;48.334;16.206;2022-11-15T16:17:43;8.50;99.90
33811;DHT22;20119;48.334;16.206;2022-11-15T16:20:19;8.50;99.90
33811;DHT22;20119;48.334;16.206;2022-11-15T16:22:55;8.60;99.90
33811;DHT22;20119;48.334;16.206;2022-11-15T16:25:26;8.60;99.90
33811;DHT22;20119;48.334;16.206;2022-11-15T16:27:58;8.60;99.90
33811;DHT22;20119;48.334;16.206;2022-11-15T16:30:30;8.60;99.90
33811;DHT22;20119;48.334;16.206;2022-11-15T16:33:06;8.60;99.90
33811;DHT22;20119;48.334;16.206;2022-11-15T16:35:36;8.50;99.90
33811;DHT22;20119;48.334;16.206;2022-11-15T16:38:07;8.40;99.90
33811;DHT22;20119;48.334;16.206;2022-11-15T16:40:40;8.40;99.90
33811;DHT22;20119;48.334;16.206;2022-11-15T16:43:11;8.40;99.90
33811;DHT22;20119;48.334;16.206;2022-11-15T16:45:42;8.40;99.90
33811;DHT22;20119;48.334;16.206;2022-11-15T16:48:15;8.30;99.90
33811;DHT22;20119;48.334;16.206;2022-11-15T16:50:50;8.30;99.90
33811;DHT22;20119;48.334;16.206;2022-11-15T16:53:23;8.30;99.90
33811;DHT22;20119;48.334;16.206;2022-11-15T16:56:02;8.30;99.90
33811;DHT22;20119;48.334;16.206;2022-11-15T16:58:36;8.30;99.90
33811;DHT22;20119;48.334;16.206;2022-11-15T17:01:10;8.30;99.90
33811;DHT22;20119;48.334;16.206;2022-11-15T17:03:53;8.30;99.90
33811;DHT22;20119;48.334;16.206;2022-11-15T17:06:23;8.30;99.90
33811;DHT22;20119;48.334;16.206;2022-11-15T17:08:53;8.40;99.90
33811;DHT22;20119;48.334;16.206;2022-11-15T17:11:24;8.40;99.90
33811;DHT22;20119;48.334;16.206;2022-11-15T17:13:56;8.40;99.90
33811;DHT22;20119;48.334;16.206;2022-11-15T17:16:30;8.40;99.90
33811;DHT22;20119;48.334;16.206;2022-11-15T17:19:04;8.50;99.90
33811;DHT22;20119;48.334;16.206;2022-11-15T17:21:31;8.50;99.90
33811;DHT22;20119;48.334;16.206;2022-11-15T17:24:09;8.50;99.90
33811;DHT22;20119;48.334;16.206;2022-11-15T17:27:03;8.70;99.90